sensor_id;sensor_type;location;lat;lon;timestamp;pressure;altitude;pressure_sealevel;temperature;humidity
8280;BME280;8335;42.646;23.380;2023-04-07T00:01:28;142213.47;;;2.42;59.40
8280;BME280;8335;42.646;23.380;2023-04-07T00:03:54;142208.56;;;2.40;60.19
8280;BME280;8335;42.646;23.380;2023-04-07T00:06:21;142176.44;;;2.27;59.27
8280;BME280;8335;42.646;23.380;2023-04-07T00:08:48;142207.31;;;2.39;59.40
8280;BME280;8335;42.646;23.380;2023-04-07T00:11:16;142212.25;;;2.41;59.79
8280;BME280;8335;42.646;23.380;2023-04-07T00:13:43;142224.59;;;2.46;58.70
8280;BME280;8335;42.646;23.380;2023-04-07T00:16:10;142219.69;;;2.44;58.33
8280;BME280;8335;42.646;23.380;2023-04-07T00:18:36;142212.25;;;2.41;58.33
8280;BME280;8335;42.646;23.380;2023-04-07T00:21:03;142199.94;;;2.36;58.44
8280;BME280;8335;42.646;23.380;2023-04-07T00:23:30;142201.16;;;2.37;58.82
8280;BME280;8335;42.646;23.380;2023-04-07T00:25:57;142204.84;;;2.38;58.23
8280;BME280;8335;42.646;23.380;2023-04-07T00:28:25;142196.19;;;2.35;58.44
8280;BME280;8335;42.646;23.380;2023-04-07T00:30:52;142223.38;;;2.46;58.15
8280;BME280;8335;42.646;23.380;2023-04-07T00:33:18;142223.38;;;2.46;57.40
8280;BME280;8335;42.646;23.380;2023-04-07T00:35:45;142240.66;;;2.53;57.25
8280;BME280;8335;42.646;23.380;2023-04-07T00:38:12;142223.38;;;2.46;57.56
8280;BME280;8335;42.646;23.380;2023-04-07T00:40:38;142218.44;;;2.44;57.67
8280;BME280;8335;42.646;23.380;2023-04-07T00:43:05;142214.72;;;2.42;57.69
8280;BME280;8335;42.646;23.380;2023-04-07T00:45:33;142233.28;;;2.50;57.07
8280;BME280;8335;42.646;23.380;2023-04-07T00:48:02;142239.44;;;2.53;56.49
8280;BME280;8335;42.646;23.380;2023-04-07T00:50:29;142232.00;;;2.49;57.19
8280;BME280;8335;42.646;23.380;2023-04-07T00:52:56;142235.72;;;2.51;57.50
8280;BME280;8335;42.646;23.380;2023-04-07T00:55:23;142235.72;;;2.51;57.40
8280;BME280;8335;42.646;23.380;2023-04-07T00:57:49;142162.84;;;2.21;57.72
8280;BME280;8335;42.646;23.380;2023-04-07T01:00:17;142218.44;;;2.44;58.04
8280;BME280;8335;42.646;23.380;2023-04-07T01:02:51;142207.31;;;2.39;59.77
8280;BME280;8335;42.646;23.380;2023-04-07T01:05:22;142183.88;;;2.30;64.86
8280;BME280;8335;42.646;23.380;2023-04-07T01:07:57;142155.47;;;2.18;68.37
8280;BME280;8335;42.646;23.380;2023-04-07T01:10:29;142119.69;;;2.03;71.20
8280;BME280;8335;42.646;23.380;2023-04-07T01:13:03;142080.22;;;1.87;73.72
8280;BME280;8335;42.646;23.380;2023-04-07T01:15:32;142051.81;;;1.75;73.96
8280;BME280;8335;42.646;23.380;2023-04-07T01:18:07;142023.44;;;1.63;74.49
8280;BME280;8335;42.646;23.380;2023-04-07T01:20:36;142037.00;;;1.69;73.29
8280;BME280;8335;42.646;23.380;2023-04-07T01:23:05;142019.72;;;1.62;75.12
8280;BME280;8335;42.646;23.380;2023-04-07T01:25:41;141992.63;;;1.51;73.26
8280;BME280;8335;42.646;23.380;2023-04-07T01:28:35;141951.88;;;1.34;75.63
8280;BME280;8335;42.646;23.380;2023-04-07T01:31:08;141912.44;;;1.18;73.94
8280;BME280;8335;42.646;23.380;2023-04-07T01:33:36;141946.97;;;1.32;74.93
8280;BME280;8335;42.646;23.380;2023-04-07T01:36:05;141961.78;;;1.38;71.61
8280;BME280;8335;42.646;23.380;2023-04-07T01:38:33;141970.38;;;1.42;71.79
8280;BME280;8335;42.646;23.380;2023-04-07T01:41:01;141985.19;;;1.48;68.85
8280;BME280;8335;42.646;23.380;2023-04-07T01:43:29;141993.84;;;1.51;65.66
8280;BME280;8335;42.646;23.380;2023-04-07T01:45:57;142013.59;;;1.59;67.68
8280;BME280;8335;42.646;23.380;2023-04-07T01:48:26;142008.66;;;1.57;71.17
8280;BME280;8335;42.646;23.380;2023-04-07T01:50:53;141992.63;;;1.51;74.56
8280;BME280;8335;42.646;23.380;2023-04-07T01:53:22;141977.81;;;1.45;74.02
8280;BME280;8335;42.646;23.380;2023-04-07T01:55:49;141933.41;;;1.26;77.13
8280;BME280;8335;42.646;23.380;2023-04-07T01:58:17;141932.16;;;1.26;79.94
8280;BME280;8335;42.646;23.380;2023-04-07T02:00:44;141911.22;;;1.17;81.35
8280;BME280;8335;42.646;23.380;2023-04-07T02:03:14;141874.22;;;1.02;82.64
8280;BME280;8335;42.646;23.380;2023-04-07T02:05:47;141893.94;;;1.10;83.23
8280;BME280;8335;42.646;23.380;2023-04-07T02:08:15;141884.06;;;1.06;83.05
8280;BME280;8335;42.646;23.380;2023-04-07T02:10:45;141887.81;;;1.07;84.17
8280;BME280;8335;42.646;23.380;2023-04-07T02:13:15;141906.28;;;1.15;84.21
8280;BME280;8335;42.646;23.380;2023-04-07T02:15:44;141887.81;;;1.07;83.91
8280;BME280;8335;42.646;23.380;2023-04-07T02:18:12;141898.88;;;1.12;82.42
8280;BME280;8335;42.646;23.380;2023-04-07T02:20:41;141927.25;;;1.24;82.47
8280;BME280;8335;42.646;23.380;2023-04-07T02:23:11;141907.53;;;1.16;82.76
8280;BME280;8335;42.646;23.380;2023-04-07T02:25:38;141946.97;;;1.32;82.05
8280;BME280;8335;42.646;23.380;2023-04-07T02:28:05;141914.91;;;1.19;81.80
8280;BME280;8335;42.646;23.380;2023-04-07T02:30:32;141890.25;;;1.08;82.93
8280;BME280;8335;42.646;23.380;2023-04-07T02:32:59;141887.81;;;1.07;83.69
8280;BME280;8335;42.646;23.380;2023-04-07T02:35:26;141884.06;;;1.06;84.47
8280;BME280;8335;42.646;23.380;2023-04-07T02:37:54;141869.25;;;1.00;84.32
8280;BME280;8335;42.646;23.380;2023-04-07T02:40:22;141860.66;;;0.96;84.07
8280;BME280;8335;42.646;23.380;2023-04-07T02:42:49;141877.91;;;1.03;83.51
8280;BME280;8335;42.646;23.380;2023-04-07T02:45:16;141901.31;;;1.13;83.02
8280;BME280;8335;42.646;23.380;2023-04-07T02:47:42;141922.31;;;1.22;82.51
8280;BME280;8335;42.646;23.380;2023-04-07T02:50:10;141946.97;;;1.32;82.97
8280;BME280;8335;42.646;23.380;2023-04-07T02:52:36;141943.28;;;1.30;82.35
8280;BME280;8335;42.646;23.380;2023-04-07T02:55:04;141919.81;;;1.21;82.51
8280;BME280;8335;42.646;23.380;2023-04-07T02:57:32;141943.28;;;1.30;82.85
8280;BME280;8335;42.646;23.380;2023-04-07T02:59:59;141940.81;;;1.29;83.17
8280;BME280;8335;42.646;23.380;2023-04-07T03:02:26;141955.59;;;1.35;83.19
8280;BME280;8335;42.646;23.380;2023-04-07T03:04:53;141930.94;;;1.25;83.99
8280;BME280;8335;42.646;23.380;2023-04-07T03:07:19;141932.16;;;1.26;83.92
8280;BME280;8335;42.646;23.380;2023-04-07T03:09:46;141946.97;;;1.32;84.35
8280;BME280;8335;42.646;23.380;2023-04-07T03:12:13;141939.59;;;1.29;83.48
8280;BME280;8335;42.646;23.380;2023-04-07T03:14:41;141976.59;;;1.44;83.91
8280;BME280;8335;42.646;23.380;2023-04-07T03:17:07;142008.66;;;1.57;83.28
8280;BME280;8335;42.646;23.380;2023-04-07T03:19:34;142017.28;;;1.61;82.49
8280;BME280;8335;42.646;23.380;2023-04-07T03:22:01;142044.44;;;1.72;81.82
8280;BME280;8335;42.646;23.380;2023-04-07T03:24:28;142074.00;;;1.84;80.62
8280;BME280;8335;42.646;23.380;2023-04-07T03:26:54;142097.50;;;1.94;80.60
8280;BME280;8335;42.646;23.380;2023-04-07T03:29:21;142114.78;;;2.01;80.51
8280;BME280;8335;42.646;23.380;2023-04-07T03:31:49;142130.81;;;2.08;79.29
8280;BME280;8335;42.646;23.380;2023-04-07T03:34:16;142135.72;;;2.10;78.83
8280;BME280;8335;42.646;23.380;2023-04-07T03:36:43;142150.56;;;2.16;78.90
8280;BME280;8335;42.646;23.380;2023-04-07T03:39:09;142151.78;;;2.16;78.76
8280;BME280;8335;42.646;23.380;2023-04-07T03:41:36;142159.16;;;2.19;76.82
8280;BME280;8335;42.646;23.380;2023-04-07T03:44:03;142159.16;;;2.19;75.87
8280;BME280;8335;42.646;23.380;2023-04-07T03:46:30;142153.00;;;2.17;76.02
8280;BME280;8335;42.646;23.380;2023-04-07T03:48:58;142144.34;;;2.13;75.09
8280;BME280;8335;42.646;23.380;2023-04-07T03:51:25;142114.78;;;2.01;74.05
8280;BME280;8335;42.646;23.380;2023-04-07T03:53:52;142129.59;;;2.07;71.43
8280;BME280;8335;42.646;23.380;2023-04-07T03:56:19;142129.59;;;2.07;67.91
8280;BME280;8335;42.646;23.380;2023-04-07T03:58:45;142132.03;;;2.08;67.37
8280;BME280;8335;42.646;23.380;2023-04-07T04:01:13;142141.88;;;2.12;64.81
8280;BME280;8335;42.646;23.380;2023-04-07T04:03:40;142155.47;;;2.18;65.53
8280;BME280;8335;42.646;23.380;2023-04-07T04:06:08;142159.16;;;2.19;63.52
8280;BME280;8335;42.646;23.380;2023-04-07T04:08:35;142167.84;;;2.23;63.36
8280;BME280;8335;42.646;23.380;2023-04-07T04:11:02;142192.50;;;2.33;63.23
8280;BME280;8335;42.646;23.380;2023-04-07T04:13:28;142240.66;;;2.53;61.94
8280;BME280;8335;42.646;23.380;2023-04-07T04:15:55;142272.75;;;2.66;61.71
8280;BME280;8335;42.646;23.380;2023-04-07T04:18:22;142308.56;;;2.81;62.55
8280;BME280;8335;42.646;23.380;2023-04-07T04:20:49;142287.59;;;2.72;70.83
8280;BME280;8335;42.646;23.380;2023-04-07T04:23:17;142187.56;;;2.31;74.58
8280;BME280;8335;42.646;23.380;2023-04-07T04:25:43;142141.88;;;2.12;76.94
8280;BME280;8335;42.646;23.380;2023-04-07T04:28:10;142071.56;;;1.83;78.74
8280;BME280;8335;42.646;23.380;2023-04-07T04:30:37;141969.16;;;1.41;80.63
8280;BME280;8335;42.646;23.380;2023-04-07T04:33:04;142004.94;;;1.56;81.40
8280;BME280;8335;42.646;23.380;2023-04-07T04:35:30;142020.97;;;1.62;80.33
8280;BME280;8335;42.646;23.380;2023-04-07T04:37:57;142040.69;;;1.71;79.98
8280;BME280;8335;42.646;23.380;2023-04-07T04:40:25;142040.69;;;1.71;79.10
8280;BME280;8335;42.646;23.380;2023-04-07T04:42:52;142046.91;;;1.73;79.61
8280;BME280;8335;42.646;23.380;2023-04-07T04:45:18;142059.19;;;1.78;78.10
8280;BME280;8335;42.646;23.380;2023-04-07T04:47:45;142076.47;;;1.85;76.59
8280;BME280;8335;42.646;23.380;2023-04-07T04:50:12;142088.81;;;1.90;76.01
8280;BME280;8335;42.646;23.380;2023-04-07T04:52:39;142083.91;;;1.88;75.37
8280;BME280;8335;42.646;23.380;2023-04-07T04:55:07;142095.03;;;1.93;77.29
8280;BME280;8335;42.646;23.380;2023-04-07T04:57:35;142106.09;;;1.98;77.06
8280;BME280;8335;42.646;23.380;2023-04-07T05:00:03;142127.06;;;2.06;74.07
8280;BME280;8335;42.646;23.380;2023-04-07T05:02:30;142161.63;;;2.20;74.76
8280;BME280;8335;42.646;23.380;2023-04-07T05:04:57;142143.13;;;2.13;74.93
8280;BME280;8335;42.646;23.380;2023-04-07T05:07:24;142123.38;;;2.05;74.98
8280;BME280;8335;42.646;23.380;2023-04-07T05:09:51;142169.06;;;2.24;72.39
8280;BME280;8335;42.646;23.380;2023-04-07T05:12:18;142202.41;;;2.37;72.59
8280;BME280;8335;42.646;23.380;2023-04-07T05:14:46;142230.75;;;2.49;75.53
8280;BME280;8335;42.646;23.380;2023-04-07T05:17:12;142253.03;;;2.58;74.95
8280;BME280;8335;42.646;23.380;2023-04-07T05:19:39;142257.94;;;2.60;75.78
8280;BME280;8335;42.646;23.380;2023-04-07T05:22:06;142253.03;;;2.58;74.88
8280;BME280;8335;42.646;23.380;2023-04-07T05:24:33;142292.50;;;2.74;74.43
8280;BME280;8335;42.646;23.380;2023-04-07T05:26:59;142365.38;;;3.04;73.71
8280;BME280;8335;42.646;23.380;2023-04-07T05:29:26;142420.94;;;3.27;72.34
8280;BME280;8335;42.646;23.380;2023-04-07T05:31:54;142483.97;;;3.53;70.95
8280;BME280;8335;42.646;23.380;2023-04-07T05:34:21;142544.50;;;3.78;70.21
8280;BME280;8335;42.646;23.380;2023-04-07T05:36:47;142600.19;;;4.01;68.54
8280;BME280;8335;42.646;23.380;2023-04-07T05:39:14;142629.81;;;4.13;68.64
8280;BME280;8335;42.646;23.380;2023-04-07T05:41:41;142695.38;;;4.40;67.60
8280;BME280;8335;42.646;23.380;2023-04-07T05:44:08;142697.84;;;4.41;66.21
8280;BME280;8335;42.646;23.380;2023-04-07T05:46:34;142713.91;;;4.48;64.93
8280;BME280;8335;42.646;23.380;2023-04-07T05:49:02;142757.22;;;4.66;65.36
8280;BME280;8335;42.646;23.380;2023-04-07T05:51:29;143040.63;;;5.83;61.98
8280;BME280;8335;42.646;23.380;2023-04-07T05:53:57;143295.84;;;6.87;56.67
8280;BME280;8335;42.646;23.380;2023-04-07T05:56:24;143659.25;;;8.37;53.46
8280;BME280;8335;42.646;23.380;2023-04-07T05:58:51;143789.53;;;8.90;49.95
8280;BME280;8335;42.646;23.380;2023-04-07T06:01:18;143905.03;;;9.37;47.53
8280;BME280;8335;42.646;23.380;2023-04-07T06:03:44;143993.22;;;9.74;46.03
8280;BME280;8335;42.646;23.380;2023-04-07T06:06:13;143936.09;;;9.50;45.39
8280;BME280;8335;42.646;23.380;2023-04-07T06:08:40;143888.88;;;9.31;45.22
8280;BME280;8335;42.646;23.380;2023-04-07T06:11:07;143866.56;;;9.22;46.47
8280;BME280;8335;42.646;23.380;2023-04-07T06:13:34;143833.03;;;9.08;47.06
8280;BME280;8335;42.646;23.380;2023-04-07T06:16:00;143964.63;;;9.62;45.67
8280;BME280;8335;42.646;23.380;2023-04-07T06:18:27;144233.13;;;10.72;43.45
8280;BME280;8335;42.646;23.380;2023-04-07T06:20:54;144447.03;;;11.60;41.00
8280;BME280;8335;42.646;23.380;2023-04-07T06:23:22;144648.69;;;12.42;39.32
8280;BME280;8335;42.646;23.380;2023-04-07T06:25:49;144957.63;;;13.68;37.01
8280;BME280;8335;42.646;23.380;2023-04-07T06:28:17;145145.88;;;14.45;35.83
8280;BME280;8335;42.646;23.380;2023-04-07T06:30:44;145115.94;;;14.33;35.23
8280;BME280;8335;42.646;23.380;2023-04-07T06:33:11;145145.88;;;14.45;34.74
8280;BME280;8335;42.646;23.380;2023-04-07T06:35:38;145204.53;;;14.69;33.95
8280;BME280;8335;42.646;23.380;2023-04-07T06:38:05;145314.28;;;15.14;33.32
8280;BME280;8335;42.646;23.380;2023-04-07T06:40:33;145467.84;;;15.77;32.22
8280;BME280;8335;42.646;23.380;2023-04-07T06:43:00;145575.19;;;16.20;31.27
8280;BME280;8335;42.646;23.380;2023-04-07T06:45:28;145782.56;;;17.05;30.28
8280;BME280;8335;42.646;23.380;2023-04-07T06:47:55;145826.34;;;17.23;29.43
8280;BME280;8335;42.646;23.380;2023-04-07T06:50:21;145821.31;;;17.21;29.40
8280;BME280;8335;42.646;23.380;2023-04-07T06:52:48;145782.56;;;17.05;29.25
8280;BME280;8335;42.646;23.380;2023-04-07T06:55:15;145762.59;;;16.97;29.77
8280;BME280;8335;42.646;23.380;2023-04-07T06:57:43;145492.81;;;15.87;31.11
8280;BME280;8335;42.646;23.380;2023-04-07T07:00:10;145353.00;;;15.30;31.64
8280;BME280;8335;42.646;23.380;2023-04-07T07:02:37;145429.09;;;15.61;31.48
8280;BME280;8335;42.646;23.380;2023-04-07T07:05:04;145561.50;;;16.15;30.78
8280;BME280;8335;42.646;23.380;2023-04-07T07:07:32;145620.16;;;16.39;30.52
8280;BME280;8335;42.646;23.380;2023-04-07T07:09:59;145646.38;;;16.49;30.38
8280;BME280;8335;42.646;23.380;2023-04-07T07:12:26;145517.78;;;15.97;30.79
8280;BME280;8335;42.646;23.380;2023-04-07T07:14:54;145541.47;;;16.07;31.26
8280;BME280;8335;42.646;23.380;2023-04-07T07:17:20;145637.66;;;16.46;29.94
8280;BME280;8335;42.646;23.380;2023-04-07T07:19:47;145791.34;;;17.09;29.34
8280;BME280;8335;42.646;23.380;2023-04-07T07:22:14;145956.34;;;17.76;28.18
8280;BME280;8335;42.646;23.380;2023-04-07T07:24:41;146251.53;;;18.96;26.67
8280;BME280;8335;42.646;23.380;2023-04-07T07:27:07;146453.06;;;19.78;25.98
8280;BME280;8335;42.646;23.380;2023-04-07T07:29:34;146469.34;;;19.85;25.73
8280;BME280;8335;42.646;23.380;2023-04-07T07:32:02;146366.66;;;19.43;25.65
8280;BME280;8335;42.646;23.380;2023-04-07T07:34:29;146325.34;;;19.26;26.33
8280;BME280;8335;42.646;23.380;2023-04-07T07:36:56;146045.09;;;18.12;26.97
8280;BME280;8335;42.646;23.380;2023-04-07T07:39:23;146045.09;;;18.12;28.29
8280;BME280;8335;42.646;23.380;2023-04-07T07:41:50;145988.84;;;17.89;25.85
8280;BME280;8335;42.646;23.380;2023-04-07T07:44:17;145757.63;;;16.95;27.63
8280;BME280;8335;42.646;23.380;2023-04-07T07:46:44;145613.94;;;16.36;27.51
8280;BME280;8335;42.646;23.380;2023-04-07T07:49:12;145622.66;;;16.40;27.88
8280;BME280;8335;42.646;23.380;2023-04-07T07:51:39;145758.84;;;16.95;27.39
8280;BME280;8335;42.646;23.380;2023-04-07T07:54:06;145816.31;;;17.19;26.87
8280;BME280;8335;42.646;23.380;2023-04-07T07:56:33;145955.09;;;17.75;26.36
8280;BME280;8335;42.646;23.380;2023-04-07T07:59:00;145923.78;;;17.63;26.09
8280;BME280;8335;42.646;23.380;2023-04-07T08:01:27;145978.84;;;17.85;26.24
8280;BME280;8335;42.646;23.380;2023-04-07T08:03:54;145911.31;;;17.57;25.49
8280;BME280;8335;42.646;23.380;2023-04-07T08:06:22;145916.31;;;17.59;25.95
8280;BME280;8335;42.646;23.380;2023-04-07T08:08:49;145901.31;;;17.53;25.78
8280;BME280;8335;42.646;23.380;2023-04-07T08:11:16;145921.28;;;17.61;24.81
8280;BME280;8335;42.646;23.380;2023-04-07T08:13:43;145771.38;;;17.00;27.01
8280;BME280;8335;42.646;23.380;2023-04-07T08:16:11;145736.38;;;16.86;26.18
8280;BME280;8335;42.646;23.380;2023-04-07T08:18:37;145607.66;;;16.34;26.41
8280;BME280;8335;42.646;23.380;2023-04-07T08:21:05;145347.97;;;15.28;27.33
8280;BME280;8335;42.646;23.380;2023-04-07T08:23:33;145452.84;;;15.71;27.87
8280;BME280;8335;42.646;23.380;2023-04-07T08:26:00;145425.38;;;15.59;28.12
8280;BME280;8335;42.646;23.380;2023-04-07T08:28:26;145361.72;;;15.33;27.67
8280;BME280;8335;42.646;23.380;2023-04-07T08:30:53;145379.19;;;15.40;28.25
8280;BME280;8335;42.646;23.380;2023-04-07T08:33:20;145305.56;;;15.10;28.38
8280;BME280;8335;42.646;23.380;2023-04-07T08:35:47;145331.75;;;15.21;28.46
8280;BME280;8335;42.646;23.380;2023-04-07T08:38:14;145409.13;;;15.53;27.80
8280;BME280;8335;42.646;23.380;2023-04-07T08:40:42;145426.63;;;15.60;27.81
8280;BME280;8335;42.646;23.380;2023-04-07T08:43:09;145366.69;;;15.35;28.31
8280;BME280;8335;42.646;23.380;2023-04-07T08:45:38;145369.22;;;15.36;28.81
8280;BME280;8335;42.646;23.380;2023-04-07T08:48:12;145296.81;;;15.07;28.99
8280;BME280;8335;42.646;23.380;2023-04-07T08:50:43;145331.75;;;15.21;28.42
8280;BME280;8335;42.646;23.380;2023-04-07T08:53:11;145407.91;;;15.52;28.63
8280;BME280;8335;42.646;23.380;2023-04-07T08:55:39;145308.06;;;15.11;28.38
8280;BME280;8335;42.646;23.380;2023-04-07T08:58:09;145304.31;;;15.10;28.64
8280;BME280;8335;42.646;23.380;2023-04-07T09:00:38;145357.97;;;15.32;28.80
8280;BME280;8335;42.646;23.380;2023-04-07T09:03:07;145301.84;;;15.09;28.59
8280;BME280;8335;42.646;23.380;2023-04-07T09:05:34;145421.63;;;15.58;28.28
8280;BME280;8335;42.646;23.380;2023-04-07T09:08:01;145538.97;;;16.06;27.74
8280;BME280;8335;42.646;23.380;2023-04-07T09:10:28;145635.16;;;16.45;27.02
8280;BME280;8335;42.646;23.380;2023-04-07T09:12:57;145611.41;;;16.35;26.19
8280;BME280;8335;42.646;23.380;2023-04-07T09:15:29;145658.88;;;16.55;27.44
8280;BME280;8335;42.646;23.380;2023-04-07T09:17:56;145678.84;;;16.63;27.04
8280;BME280;8335;42.646;23.380;2023-04-07T09:20:23;145747.59;;;16.91;27.26
8280;BME280;8335;42.646;23.380;2023-04-07T09:22:50;145846.31;;;17.31;26.79
8280;BME280;8335;42.646;23.380;2023-04-07T09:25:18;145848.81;;;17.32;26.02
8280;BME280;8335;42.646;23.380;2023-04-07T09:27:54;145760.09;;;16.96;26.09
8280;BME280;8335;42.646;23.380;2023-04-07T09:30:21;145642.63;;;16.48;27.00
8280;BME280;8335;42.646;23.380;2023-04-07T09:32:51;145553.97;;;16.12;26.95
8280;BME280;8335;42.646;23.380;2023-04-07T09:35:18;145510.31;;;15.94;26.82
8280;BME280;8335;42.646;23.380;2023-04-07T09:38:00;145469.06;;;15.77;27.81
8280;BME280;8335;42.646;23.380;2023-04-07T09:40:33;145455.34;;;15.72;27.66
8280;BME280;8335;42.646;23.380;2023-04-07T09:43:03;145330.50;;;15.21;27.95
8280;BME280;8335;42.646;23.380;2023-04-07T09:45:30;145052.34;;;14.07;29.58
8280;BME280;8335;42.646;23.380;2023-04-07T09:47:58;145057.38;;;14.09;29.97
8280;BME280;8335;42.646;23.380;2023-04-07T09:50:31;144980.06;;;13.77;30.50
8280;BME280;8335;42.646;23.380;2023-04-07T09:52:59;144977.56;;;13.76;30.74
8280;BME280;8335;42.646;23.380;2023-04-07T09:55:27;144927.72;;;13.56;31.25
8280;BME280;8335;42.646;23.380;2023-04-07T09:57:54;144793.16;;;13.01;31.85
8280;BME280;8335;42.646;23.380;2023-04-07T10:00:22;144752.03;;;12.84;33.05
8280;BME280;8335;42.646;23.380;2023-04-07T10:02:49;144718.41;;;12.71;32.82
8280;BME280;8335;42.646;23.380;2023-04-07T10:05:19;144747.06;;;12.82;33.23
8280;BME280;8335;42.646;23.380;2023-04-07T10:07:47;144911.50;;;13.49;34.06
8280;BME280;8335;42.646;23.380;2023-04-07T10:10:14;145019.97;;;13.94;32.93
8280;BME280;8335;42.646;23.380;2023-04-07T10:12:41;144963.84;;;13.71;31.31
8280;BME280;8335;42.646;23.380;2023-04-07T10:15:11;144906.53;;;13.47;32.35
8280;BME280;8335;42.646;23.380;2023-04-07T10:17:39;144967.63;;;13.72;32.39
8280;BME280;8335;42.646;23.380;2023-04-07T10:20:09;144922.75;;;13.54;31.63
8280;BME280;8335;42.646;23.380;2023-04-07T10:22:38;144950.19;;;13.65;32.27
8280;BME280;8335;42.646;23.380;2023-04-07T10:25:08;145043.63;;;14.03;32.84
8280;BME280;8335;42.646;23.380;2023-04-07T10:27:39;145044.88;;;14.04;31.33
8280;BME280;8335;42.646;23.380;2023-04-07T10:30:16;145061.09;;;14.11;31.48
8280;BME280;8335;42.646;23.380;2023-04-07T10:32:47;144914.06;;;13.51;31.46
8280;BME280;8335;42.646;23.380;2023-04-07T10:35:15;144830.53;;;13.16;32.50
8280;BME280;8335;42.646;23.380;2023-04-07T10:38:08;144788.13;;;12.99;33.05
8280;BME280;8335;42.646;23.380;2023-04-07T10:40:37;144790.66;;;13.00;32.58
8280;BME280;8335;42.646;23.380;2023-04-07T10:43:04;144768.22;;;12.91;32.94
8280;BME280;8335;42.646;23.380;2023-04-07T10:45:55;144747.06;;;12.82;33.64
8280;BME280;8335;42.646;23.380;2023-04-07T10:48:24;144694.75;;;12.61;33.54
8280;BME280;8335;42.646;23.380;2023-04-07T10:51:12;144671.13;;;12.51;34.53
8280;BME280;8335;42.646;23.380;2023-04-07T10:57:11;144653.69;;;12.44;34.41
8280;BME280;8335;42.646;23.380;2023-04-07T10:59:41;144574.00;;;12.11;35.87
8280;BME280;8335;42.646;23.380;2023-04-07T11:02:29;144452.00;;;11.62;36.70
8280;BME280;8335;42.646;23.380;2023-04-07T11:04:56;144452.00;;;11.62;37.68
8280;BME280;8335;42.646;23.380;2023-04-07T11:07:44;144454.47;;;11.63;37.37
8280;BME280;8335;42.646;23.380;2023-04-07T11:10:11;144454.47;;;11.63;37.66
8280;BME280;8335;42.646;23.380;2023-04-07T11:12:41;144460.72;;;11.65;37.95
8280;BME280;8335;42.646;23.380;2023-04-07T11:15:19;144405.94;;;11.43;37.24
8280;BME280;8335;42.646;23.380;2023-04-07T11:17:46;144449.53;;;11.61;37.90
8280;BME280;8335;42.646;23.380;2023-04-07T11:20:13;144501.81;;;11.82;37.10
8280;BME280;8335;42.646;23.380;2023-04-07T11:22:40;144508.03;;;11.84;37.10
8280;BME280;8335;42.646;23.380;2023-04-07T11:25:19;144530.47;;;11.94;36.93
8280;BME280;8335;42.646;23.380;2023-04-07T11:27:48;144513.03;;;11.87;37.52
8280;BME280;8335;42.646;23.380;2023-04-07T11:30:16;144545.34;;;12.00;38.13
8280;BME280;8335;42.646;23.380;2023-04-07T11:32:47;144546.66;;;12.00;37.62
8280;BME280;8335;42.646;23.380;2023-04-07T11:35:15;144551.63;;;12.02;37.48
8280;BME280;8335;42.646;23.380;2023-04-07T11:37:41;144591.44;;;12.19;37.60
8280;BME280;8335;42.646;23.380;2023-04-07T11:40:09;144587.69;;;12.17;38.18
8280;BME280;8335;42.646;23.380;2023-04-07T11:42:38;144585.22;;;12.16;37.57
8280;BME280;8335;42.646;23.380;2023-04-07T11:45:17;144586.47;;;12.17;37.73
8280;BME280;8335;42.646;23.380;2023-04-07T11:47:45;144586.47;;;12.17;37.42
8280;BME280;8335;42.646;23.380;2023-04-07T11:50:12;144529.22;;;11.93;37.84
8280;BME280;8335;42.646;23.380;2023-04-07T11:52:41;144554.09;;;12.03;38.35
8280;BME280;8335;42.646;23.380;2023-04-07T11:55:16;144603.88;;;12.24;37.29
8280;BME280;8335;42.646;23.380;2023-04-07T11:57:43;144622.56;;;12.31;38.48
8280;BME280;8335;42.646;23.380;2023-04-07T12:00:13;144605.13;;;12.24;37.90
8280;BME280;8335;42.646;23.380;2023-04-07T12:02:40;144643.72;;;12.40;38.70
8280;BME280;8335;42.646;23.380;2023-04-07T12:05:07;144613.81;;;12.28;37.75
8280;BME280;8335;42.646;23.380;2023-04-07T12:07:35;144524.22;;;11.91;37.70
8280;BME280;8335;42.646;23.380;2023-04-07T12:10:17;144460.72;;;11.65;39.84
8280;BME280;8335;42.646;23.380;2023-04-07T12:12:44;144445.78;;;11.59;40.32
8280;BME280;8335;42.646;23.380;2023-04-07T12:15:13;144412.19;;;11.45;39.83
8280;BME280;8335;42.646;23.380;2023-04-07T12:17:44;144459.50;;;11.65;40.83
8280;BME280;8335;42.646;23.380;2023-04-07T12:20:11;144455.72;;;11.63;39.90
8280;BME280;8335;42.646;23.380;2023-04-07T12:22:39;144444.56;;;11.58;39.86
8280;BME280;8335;42.646;23.380;2023-04-07T12:25:07;144300.22;;;10.99;40.01
8280;BME280;8335;42.646;23.380;2023-04-07T12:27:34;144435.81;;;11.55;40.64
8280;BME280;8335;42.646;23.380;2023-04-07T12:30:00;144425.91;;;11.51;39.93
8280;BME280;8335;42.646;23.380;2023-04-07T12:32:29;144422.13;;;11.49;40.29
8280;BME280;8335;42.646;23.380;2023-04-07T12:34:57;144448.28;;;11.60;40.26
8280;BME280;8335;42.646;23.380;2023-04-07T12:37:24;144418.41;;;11.48;39.77
8280;BME280;8335;42.646;23.380;2023-04-07T12:39:51;144393.53;;;11.38;39.98
8280;BME280;8335;42.646;23.380;2023-04-07T12:42:17;144382.34;;;11.33;40.84
8280;BME280;8335;42.646;23.380;2023-04-07T12:44:44;144414.69;;;11.46;40.30
8280;BME280;8335;42.646;23.380;2023-04-07T12:47:11;144401.00;;;11.41;40.83
8280;BME280;8335;42.646;23.380;2023-04-07T12:49:39;144402.22;;;11.41;40.52
8280;BME280;8335;42.646;23.380;2023-04-07T12:52:05;144417.16;;;11.47;40.98
8280;BME280;8335;42.646;23.380;2023-04-07T12:54:32;144407.25;;;11.43;40.87
8280;BME280;8335;42.646;23.380;2023-04-07T12:56:59;144422.13;;;11.49;40.94
8280;BME280;8335;42.646;23.380;2023-04-07T12:59:26;144429.63;;;11.52;40.78
8280;BME280;8335;42.646;23.380;2023-04-07T13:01:53;144409.72;;;11.44;40.80
8280;BME280;8335;42.646;23.380;2023-04-07T13:04:20;144384.81;;;11.34;40.83
8280;BME280;8335;42.646;23.380;2023-04-07T13:06:48;144363.69;;;11.25;40.96
8280;BME280;8335;42.646;23.380;2023-04-07T13:09:15;144383.56;;;11.34;40.85
8280;BME280;8335;42.646;23.380;2023-04-07T13:11:42;144447.03;;;11.60;40.97
8280;BME280;8335;42.646;23.380;2023-04-07T13:14:10;144433.34;;;11.54;40.95